sensor_id;sensor_type;location;lat;lon;timestamp;temperature;humidity
8008;DHT22;4049;49.468;11.200;2022-07-29T00:01:27;21.00;50.20
8008;DHT22;4049;49.468;11.200;2022-07-29T00:03:54;21.10;50.40
8008;DHT22;4049;49.468;11.200;2022-07-29T00:06:20;21.00;50.40
8008;DHT22;4049;49.468;11.200;2022-07-29T00:08:47;21.00;50.40
8008;DHT22;4049;49.468;11.200;2022-07-29T00:11:14;21.00;50.40
8008;DHT22;4049;49.468;11.200;2022-07-29T00:13:41;21.00;50.40
8008;DHT22;4049;49.468;11.200;2022-07-29T00:16:10;21.00;50.40
8008;DHT22;4049;49.468;11.200;2022-07-29T00:18:37;21.00;50.40
8008;DHT22;4049;49.468;11.200;2022-07-29T00:21:04;21.00;51.10
8008;DHT22;4049;49.468;11.200;2022-07-29T00:23:31;21.00;50.50
8008;DHT22;4049;49.468;11.200;2022-07-29T00:25:58;21.00;50.20
8008;DHT22;4049;49.468;11.200;2022-07-29T00:28:25;21.00;50.50
8008;DHT22;4049;49.468;11.200;2022-07-29T00:30:52;21.00;50.30
8008;DHT22;4049;49.468;11.200;2022-07-29T00:33:21;21.00;50.70
8008;DHT22;4049;49.468;11.200;2022-07-29T00:35:49;20.90;50.50
8008;DHT22;4049;49.468;11.200;2022-07-29T00:38:16;20.90;50.60
8008;DHT22;4049;49.468;11.200;2022-07-29T00:40:44;20.90;50.70
8008;DHT22;4049;49.468;11.200;2022-07-29T00:43:11;20.90;50.80
8008;DHT22;4049;49.468;11.200;2022-07-29T00:45:39;20.90;50.80
8008;DHT22;4049;49.468;11.200;2022-07-29T00:48:06;20.90;50.80
8008;DHT22;4049;49.468;11.200;2022-07-29T00:50:36;20.90;50.80
8008;DHT22;4049;49.468;11.200;2022-07-29T00:53:04;20.80;51.20
8008;DHT22;4049;49.468;11.200;2022-07-29T00:55:32;20.80;50.90
8008;DHT22;4049;49.468;11.200;2022-07-29T00:57:59;20.80;51.30
8008;DHT22;4049;49.468;11.200;2022-07-29T01:00:28;20.80;50.80
8008;DHT22;4049;49.468;11.200;2022-07-29T01:02:55;20.80;51.10
8008;DHT22;4049;49.468;11.200;2022-07-29T01:05:24;20.80;51.00
8008;DHT22;4049;49.468;11.200;2022-07-29T01:07:54;20.80;51.10
8008;DHT22;4049;49.468;11.200;2022-07-29T01:10:21;20.80;51.10
8008;DHT22;4049;49.468;11.200;2022-07-29T01:12:50;20.80;51.20
8008;DHT22;4049;49.468;11.200;2022-07-29T01:15:17;20.80;50.80
8008;DHT22;4049;49.468;11.200;2022-07-29T01:17:48;20.80;51.00
8008;DHT22;4049;49.468;11.200;2022-07-29T01:20:23;20.80;51.00
8008;DHT22;4049;49.468;11.200;2022-07-29T01:23:13;20.80;51.30
8008;DHT22;4049;49.468;11.200;2022-07-29T01:26:04;20.70;51.00
8008;DHT22;4049;49.468;11.200;2022-07-29T01:28:49;20.70;51.50
8008;DHT22;4049;49.468;11.200;2022-07-29T01:31:22;20.70;51.10
8008;DHT22;4049;49.468;11.200;2022-07-29T01:34:01;20.70;51.20
8008;DHT22;4049;49.468;11.200;2022-07-29T01:36:32;20.60;50.40
8008;DHT22;4049;49.468;11.200;2022-07-29T01:39:07;20.60;51.00
8008;DHT22;4049;49.468;11.200;2022-07-29T01:41:37;20.70;50.40
8008;DHT22;4049;49.468;11.200;2022-07-29T01:44:12;20.70;50.40
8008;DHT22;4049;49.468;11.200;2022-07-29T01:46:44;20.70;50.80
8008;DHT22;4049;49.468;11.200;2022-07-29T01:49:16;20.60;50.80
8008;DHT22;4049;49.468;11.200;2022-07-29T01:51:47;20.60;51.10
8008;DHT22;4049;49.468;11.200;2022-07-29T01:54:19;20.60;51.90
8008;DHT22;4049;49.468;11.200;2022-07-29T01:56:51;20.60;52.00
8008;DHT22;4049;49.468;11.200;2022-07-29T01:59:20;20.50;52.10
8008;DHT22;4049;49.468;11.200;2022-07-29T02:01:50;20.50;52.90
8008;DHT22;4049;49.468;11.200;2022-07-29T02:04:19;20.50;52.50
8008;DHT22;4049;49.468;11.200;2022-07-29T02:06:49;20.40;52.10
8008;DHT22;4049;49.468;11.200;2022-07-29T02:09:17;20.40;52.50
8008;DHT22;4049;49.468;11.200;2022-07-29T02:11:49;20.40;52.70
8008;DHT22;4049;49.468;11.200;2022-07-29T02:14:21;20.30;52.60
8008;DHT22;4049;49.468;11.200;2022-07-29T02:16:51;20.30;52.30
8008;DHT22;4049;49.468;11.200;2022-07-29T02:19:21;20.30;53.60
8008;DHT22;4049;49.468;11.200;2022-07-29T02:21:51;20.30;53.40
8008;DHT22;4049;49.468;11.200;2022-07-29T02:24:20;20.30;53.80
8008;DHT22;4049;49.468;11.200;2022-07-29T02:26:49;20.20;53.30
8008;DHT22;4049;49.468;11.200;2022-07-29T02:29:21;20.20;53.90
8008;DHT22;4049;49.468;11.200;2022-07-29T02:31:49;20.20;54.60
8008;DHT22;4049;49.468;11.200;2022-07-29T02:34:18;20.10;54.60
8008;DHT22;4049;49.468;11.200;2022-07-29T02:36:46;20.10;53.40
8008;DHT22;4049;49.468;11.200;2022-07-29T02:39:15;20.10;55.00
8008;DHT22;4049;49.468;11.200;2022-07-29T02:41:45;20.10;55.50
8008;DHT22;4049;49.468;11.200;2022-07-29T02:44:14;20.10;55.10
8008;DHT22;4049;49.468;11.200;2022-07-29T02:46:46;20.10;55.30
8008;DHT22;4049;49.468;11.200;2022-07-29T02:49:18;20.00;55.20
8008;DHT22;4049;49.468;11.200;2022-07-29T02:51:53;20.00;54.80
8008;DHT22;4049;49.468;11.200;2022-07-29T02:54:36;20.00;54.90
8008;DHT22;4049;49.468;11.200;2022-07-29T02:57:10;19.90;54.40
8008;DHT22;4049;49.468;11.200;2022-07-29T02:59:41;19.90;54.30
8008;DHT22;4049;49.468;11.200;2022-07-29T03:02:12;19.90;54.30
8008;DHT22;4049;49.468;11.200;2022-07-29T03:04:41;19.80;54.00
8008;DHT22;4049;49.468;11.200;2022-07-29T03:07:11;19.80;54.10
8008;DHT22;4049;49.468;11.200;2022-07-29T03:09:40;19.80;54.40
8008;DHT22;4049;49.468;11.200;2022-07-29T03:12:08;19.80;54.60
8008;DHT22;4049;49.468;11.200;2022-07-29T03:14:37;19.70;56.00
8008;DHT22;4049;49.468;11.200;2022-07-29T03:17:05;19.70;54.90
8008;DHT22;4049;49.468;11.200;2022-07-29T03:19:34;19.70;55.30
8008;DHT22;4049;49.468;11.200;2022-07-29T03:22:01;19.70;55.60
8008;DHT22;4049;49.468;11.200;2022-07-29T03:24:31;19.70;55.10
8008;DHT22;4049;49.468;11.200;2022-07-29T03:26:58;19.60;55.10
8008;DHT22;4049;49.468;11.200;2022-07-29T03:29:26;19.60;55.30
8008;DHT22;4049;49.468;11.200;2022-07-29T03:31:53;19.60;55.00
8008;DHT22;4049;49.468;11.200;2022-07-29T03:34:20;19.60;54.80
8008;DHT22;4049;49.468;11.200;2022-07-29T03:36:50;19.60;54.40
8008;DHT22;4049;49.468;11.200;2022-07-29T03:39:20;19.60;54.50
8008;DHT22;4049;49.468;11.200;2022-07-29T03:41:50;19.60;54.50
8008;DHT22;4049;49.468;11.200;2022-07-29T03:44:19;19.60;54.60
8008;DHT22;4049;49.468;11.200;2022-07-29T03:46:48;19.60;54.80
8008;DHT22;4049;49.468;11.200;2022-07-29T03:49:18;19.60;54.30
8008;DHT22;4049;49.468;11.200;2022-07-29T03:51:46;19.60;54.70
8008;DHT22;4049;49.468;11.200;2022-07-29T03:54:15;19.50;54.50
8008;DHT22;4049;49.468;11.200;2022-07-29T03:56:44;19.50;54.00
8008;DHT22;4049;49.468;11.200;2022-07-29T03:59:14;19.60;54.20
8008;DHT22;4049;49.468;11.200;2022-07-29T04:01:42;19.60;53.90
8008;DHT22;4049;49.468;11.200;2022-07-29T04:04:09;19.50;54.40
8008;DHT22;4049;49.468;11.200;2022-07-29T04:06:38;19.50;54.30
8008;DHT22;4049;49.468;11.200;2022-07-29T04:09:06;19.50;54.30
8008;DHT22;4049;49.468;11.200;2022-07-29T04:11:36;19.50;54.70
8008;DHT22;4049;49.468;11.200;2022-07-29T04:14:03;19.50;55.30
8008;DHT22;4049;49.468;11.200;2022-07-29T04:16:31;19.50;54.80
8008;DHT22;4049;49.468;11.200;2022-07-29T04:18:58;19.40;54.60
8008;DHT22;4049;49.468;11.200;2022-07-29T04:21:25;19.50;55.00
8008;DHT22;4049;49.468;11.200;2022-07-29T04:23:52;19.50;55.60
8008;DHT22;4049;49.468;11.200;2022-07-29T04:26:20;19.40;55.70
8008;DHT22;4049;49.468;11.200;2022-07-29T04:28:48;19.50;55.50
8008;DHT22;4049;49.468;11.200;2022-07-29T04:31:15;19.40;55.10
8008;DHT22;4049;49.468;11.200;2022-07-29T04:33:42;19.40;55.40
8008;DHT22;4049;49.468;11.200;2022-07-29T04:36:09;19.40;55.60
8008;DHT22;4049;49.468;11.200;2022-07-29T04:38:38;19.40;55.50
8008;DHT22;4049;49.468;11.200;2022-07-29T04:41:05;19.40;55.70
8008;DHT22;4049;49.468;11.200;2022-07-29T04:43:34;19.40;56.00
8008;DHT22;4049;49.468;11.200;2022-07-29T04:46:02;19.50;55.90
8008;DHT22;4049;49.468;11.200;2022-07-29T04:48:29;19.50;56.30
8008;DHT22;4049;49.468;11.200;2022-07-29T04:50:56;19.40;56.60
8008;DHT22;4049;49.468;11.200;2022-07-29T04:53:24;19.40;56.90
8008;DHT22;4049;49.468;11.200;2022-07-29T04:55:51;19.40;56.20
8008;DHT22;4049;49.468;11.200;2022-07-29T04:58:18;19.40;57.30
8008;DHT22;4049;49.468;11.200;2022-07-29T05:00:45;19.40;56.30
8008;DHT22;4049;49.468;11.200;2022-07-29T05:03:13;19.40;57.00
8008;DHT22;4049;49.468;11.200;2022-07-29T05:05:40;19.40;57.50
8008;DHT22;4049;49.468;11.200;2022-07-29T05:08:07;19.40;58.20
8008;DHT22;4049;49.468;11.200;2022-07-29T05:10:35;19.40;57.60
8008;DHT22;4049;49.468;11.200;2022-07-29T05:13:04;19.40;57.40
8008;DHT22;4049;49.468;11.200;2022-07-29T05:15:32;19.30;58.20
8008;DHT22;4049;49.468;11.200;2022-07-29T05:17:59;19.40;58.00
8008;DHT22;4049;49.468;11.200;2022-07-29T05:20:27;19.40;58.90
8008;DHT22;4049;49.468;11.200;2022-07-29T05:22:55;19.30;59.70
8008;DHT22;4049;49.468;11.200;2022-07-29T05:25:22;19.40;59.60
8008;DHT22;4049;49.468;11.200;2022-07-29T05:27:49;19.30;58.40
8008;DHT22;4049;49.468;11.200;2022-07-29T05:30:16;19.20;58.00
8008;DHT22;4049;49.468;11.200;2022-07-29T05:32:43;19.20;58.10
8008;DHT22;4049;49.468;11.200;2022-07-29T05:35:10;19.30;58.10
8008;DHT22;4049;49.468;11.200;2022-07-29T05:37:38;19.30;58.90
8008;DHT22;4049;49.468;11.200;2022-07-29T05:40:06;19.30;58.40
8008;DHT22;4049;49.468;11.200;2022-07-29T05:42:34;19.30;59.30
8008;DHT22;4049;49.468;11.200;2022-07-29T05:45:01;19.30;60.40
8008;DHT22;4049;49.468;11.200;2022-07-29T05:47:28;19.40;60.10
8008;DHT22;4049;49.468;11.200;2022-07-29T05:49:55;19.50;60.60
8008;DHT22;4049;49.468;11.200;2022-07-29T05:52:22;19.50;60.50
8008;DHT22;4049;49.468;11.200;2022-07-29T05:54:51;19.50;59.30
8008;DHT22;4049;49.468;11.200;2022-07-29T05:57:19;19.60;59.70
8008;DHT22;4049;49.468;11.200;2022-07-29T05:59:46;19.60;59.90
8008;DHT22;4049;49.468;11.200;2022-07-29T06:02:14;19.70;59.70
8008;DHT22;4049;49.468;11.200;2022-07-29T06:04:41;19.70;58.70
8008;DHT22;4049;49.468;11.200;2022-07-29T06:07:08;19.80;58.60
8008;DHT22;4049;49.468;11.200;2022-07-29T06:09:35;19.80;59.10
8008;DHT22;4049;49.468;11.200;2022-07-29T06:12:04;19.90;58.90
8008;DHT22;4049;49.468;11.200;2022-07-29T06:14:31;20.00;59.60
8008;DHT22;4049;49.468;11.200;2022-07-29T06:16:58;20.10;59.70
8008;DHT22;4049;49.468;11.200;2022-07-29T06:19:25;20.20;60.90
8008;DHT22;4049;49.468;11.200;2022-07-29T06:21:52;20.20;60.80
8008;DHT22;4049;49.468;11.200;2022-07-29T06:24:19;20.30;60.10
8008;DHT22;4049;49.468;11.200;2022-07-29T06:26:46;20.40;61.80
8008;DHT22;4049;49.468;11.200;2022-07-29T06:29:14;20.50;61.00
8008;DHT22;4049;49.468;11.200;2022-07-29T06:31:41;20.60;60.50
8008;DHT22;4049;49.468;11.200;2022-07-29T06:34:08;20.80;60.90
8008;DHT22;4049;49.468;11.200;2022-07-29T06:36:35;20.90;60.10
8008;DHT22;4049;49.468;11.200;2022-07-29T06:39:04;21.00;59.80
8008;DHT22;4049;49.468;11.200;2022-07-29T06:41:32;21.00;60.80
8008;DHT22;4049;49.468;11.200;2022-07-29T06:43:59;21.10;59.70
8008;DHT22;4049;49.468;11.200;2022-07-29T06:46:27;21.20;59.80
8008;DHT22;4049;49.468;11.200;2022-07-29T06:48:54;21.30;61.50
8008;DHT22;4049;49.468;11.200;2022-07-29T06:51:22;21.40;60.80
8008;DHT22;4049;49.468;11.200;2022-07-29T06:53:50;21.50;60.60
8008;DHT22;4049;49.468;11.200;2022-07-29T06:56:17;21.60;61.20
8008;DHT22;4049;49.468;11.200;2022-07-29T06:58:44;21.60;61.10
8008;DHT22;4049;49.468;11.200;2022-07-29T07:01:12;21.70;60.20
8008;DHT22;4049;49.468;11.200;2022-07-29T07:03:40;21.80;60.00
8008;DHT22;4049;49.468;11.200;2022-07-29T07:06:07;21.90;61.00
8008;DHT22;4049;49.468;11.200;2022-07-29T07:08:34;22.00;60.50
8008;DHT22;4049;49.468;11.200;2022-07-29T07:11:01;22.00;59.90
8008;DHT22;4049;49.468;11.200;2022-07-29T07:13:29;22.00;61.20
8008;DHT22;4049;49.468;11.200;2022-07-29T07:16:00;22.10;59.50
8008;DHT22;4049;49.468;11.200;2022-07-29T07:18:27;22.10;60.10
8008;DHT22;4049;49.468;11.200;2022-07-29T07:20:56;22.10;59.20
8008;DHT22;4049;49.468;11.200;2022-07-29T07:23:23;22.20;60.20
8008;DHT22;4049;49.468;11.200;2022-07-29T07:25:50;22.20;59.30
8008;DHT22;4049;49.468;11.200;2022-07-29T07:28:18;22.30;59.30
8008;DHT22;4049;49.468;11.200;2022-07-29T07:30:45;22.40;60.10
8008;DHT22;4049;49.468;11.200;2022-07-29T07:33:12;22.40;59.50
8008;DHT22;4049;49.468;11.200;2022-07-29T07:35:39;22.50;60.40
8008;DHT22;4049;49.468;11.200;2022-07-29T07:38:08;22.60;59.70
8008;DHT22;4049;49.468;11.200;2022-07-29T07:40:35;22.70;59.70
8008;DHT22;4049;49.468;11.200;2022-07-29T07:43:02;22.90;59.90
8008;DHT22;4049;49.468;11.200;2022-07-29T07:45:30;23.00;58.20
8008;DHT22;4049;49.468;11.200;2022-07-29T07:47:58;23.10;58.40
8008;DHT22;4049;49.468;11.200;2022-07-29T07:50:25;23.20;58.30
8008;DHT22;4049;49.468;11.200;2022-07-29T07:52:54;23.30;57.80
8008;DHT22;4049;49.468;11.200;2022-07-29T07:55:25;23.50;58.20
8008;DHT22;4049;49.468;11.200;2022-07-29T07:57:52;23.70;57.70
8008;DHT22;4049;49.468;11.200;2022-07-29T08:00:20;23.80;57.20
8008;DHT22;4049;49.468;11.200;2022-07-29T08:02:47;23.90;57.10
8008;DHT22;4049;49.468;11.200;2022-07-29T08:05:15;24.00;57.10
8008;DHT22;4049;49.468;11.200;2022-07-29T08:07:44;24.10;57.50
8008;DHT22;4049;49.468;11.200;2022-07-29T08:10:12;24.20;57.80
8008;DHT22;4049;49.468;11.200;2022-07-29T08:12:40;24.20;58.30
8008;DHT22;4049;49.468;11.200;2022-07-29T08:15:08;24.20;57.60
8008;DHT22;4049;49.468;11.200;2022-07-29T08:17:35;24.30;57.50
8008;DHT22;4049;49.468;11.200;2022-07-29T08:20:03;24.30;57.70
8008;DHT22;4049;49.468;11.200;2022-07-29T08:22:31;24.40;58.80
8008;DHT22;4049;49.468;11.200;2022-07-29T08:24:58;24.60;58.10
8008;DHT22;4049;49.468;11.200;2022-07-29T08:27:24;24.70;57.10
8008;DHT22;4049;49.468;11.200;2022-07-29T08:29:55;24.80;55.70
8008;DHT22;4049;49.468;11.200;2022-07-29T08:32:22;24.80;55.60
8008;DHT22;4049;49.468;11.200;2022-07-29T08:34:49;24.80;55.70
8008;DHT22;4049;49.468;11.200;2022-07-29T08:37:16;24.80;56.00
8008;DHT22;4049;49.468;11.200;2022-07-29T08:39:43;24.90;56.50
8008;DHT22;4049;49.468;11.200;2022-07-29T08:42:11;25.10;56.40
8008;DHT22;4049;49.468;11.200;2022-07-29T08:44:38;25.20;56.00
8008;DHT22;4049;49.468;11.200;2022-07-29T08:47:07;25.40;55.60
8008;DHT22;4049;49.468;11.200;2022-07-29T08:49:34;25.50;55.40
8008;DHT22;4049;49.468;11.200;2022-07-29T08:52:02;25.60;55.70
8008;DHT22;4049;49.468;11.200;2022-07-29T08:54:29;25.60;55.40
8008;DHT22;4049;49.468;11.200;2022-07-29T08:56:57;25.80;53.90
8008;DHT22;4049;49.468;11.200;2022-07-29T08:59:25;25.80;53.90
8008;DHT22;4049;49.468;11.200;2022-07-29T09:01:54;26.00;54.20
8008;DHT22;4049;49.468;11.200;2022-07-29T09:04:25;26.10;53.80
8008;DHT22;4049;49.468;11.200;2022-07-29T09:06:54;26.20;53.80
8008;DHT22;4049;49.468;11.200;2022-07-29T09:09:23;26.40;53.10
8008;DHT22;4049;49.468;11.200;2022-07-29T09:11:51;26.50;53.50
8008;DHT22;4049;49.468;11.200;2022-07-29T09:14:19;26.70;54.20
8008;DHT22;4049;49.468;11.200;2022-07-29T09:16:48;26.80;53.50
8008;DHT22;4049;49.468;11.200;2022-07-29T09:19:25;27.00;53.20
8008;DHT22;4049;49.468;11.200;2022-07-29T09:21:53;27.20;53.40
8008;DHT22;4049;49.468;11.200;2022-07-29T09:24:37;27.40;53.20
8008;DHT22;4049;49.468;11.200;2022-07-29T09:27:11;27.60;52.40
8008;DHT22;4049;49.468;11.200;2022-07-29T09:29:44;27.70;51.90
8008;DHT22;4049;49.468;11.200;2022-07-29T09:32:11;27.90;51.80
8008;DHT22;4049;49.468;11.200;2022-07-29T09:34:40;28.10;52.50
8008;DHT22;4049;49.468;11.200;2022-07-29T09:37:07;28.20;51.90
8008;DHT22;4049;49.468;11.200;2022-07-29T09:39:37;28.30;52.00
8008;DHT22;4049;49.468;11.200;2022-07-29T09:42:11;28.40;51.60
8008;DHT22;4049;49.468;11.200;2022-07-29T09:44:44;28.60;51.40
8008;DHT22;4049;49.468;11.200;2022-07-29T09:47:11;28.80;51.40
8008;DHT22;4049;49.468;11.200;2022-07-29T09:49:54;29.00;51.30
8008;DHT22;4049;49.468;11.200;2022-07-29T09:52:23;29.20;50.90
8008;DHT22;4049;49.468;11.200;2022-07-29T09:54:50;29.20;50.50
8008;DHT22;4049;49.468;11.200;2022-07-29T09:57:24;29.10;50.50
8008;DHT22;4049;49.468;11.200;2022-07-29T09:59:59;29.00;50.40
8008;DHT22;4049;49.468;11.200;2022-07-29T10:02:31;29.10;50.30
8008;DHT22;4049;49.468;11.200;2022-07-29T10:05:00;29.00;49.80
8008;DHT22;4049;49.468;11.200;2022-07-29T10:07:43;29.00;49.80
8008;DHT22;4049;49.468;11.200;2022-07-29T10:10:11;29.00;50.90
8008;DHT22;4049;49.468;11.200;2022-07-29T10:12:50;29.00;50.90
8008;DHT22;4049;49.468;11.200;2022-07-29T10:15:17;29.10;50.30
8008;DHT22;4049;49.468;11.200;2022-07-29T10:17:45;29.30;50.40
8008;DHT22;4049;49.468;11.200;2022-07-29T10:20:13;29.50;49.90
8008;DHT22;4049;49.468;11.200;2022-07-29T10:22:41;29.60;49.50
8008;DHT22;4049;49.468;11.200;2022-07-29T10:25:09;29.60;49.90
8008;DHT22;4049;49.468;11.200;2022-07-29T10:27:36;29.70;49.70
8008;DHT22;4049;49.468;11.200;2022-07-29T10:30:05;29.70;49.20
8008;DHT22;4049;49.468;11.200;2022-07-29T10:32:45;29.70;49.60
8008;DHT22;4049;49.468;11.200;2022-07-29T10:35:31;29.90;49.40
8008;DHT22;4049;49.468;11.200;2022-07-29T10:38:21;30.00;48.70
8008;DHT22;4049;49.468;11.200;2022-07-29T10:41:00;30.10;49.40
8008;DHT22;4049;49.468;11.200;2022-07-29T10:43:49;30.40;49.30
8008;DHT22;4049;49.468;11.200;2022-07-29T10:46:16;30.30;48.40
8008;DHT22;4049;49.468;11.200;2022-07-29T10:49:06;30.20;49.00
8008;DHT22;4049;49.468;11.200;2022-07-29T10:51:58;30.30;49.80
8008;DHT22;4049;49.468;11.200;2022-07-29T10:54:52;30.40;48.50
8008;DHT22;4049;49.468;11.200;2022-07-29T10:57:25;30.20;48.40
8008;DHT22;4049;49.468;11.200;2022-07-29T11:00:26;30.00;48.90
8008;DHT22;4049;49.468;11.200;2022-07-29T11:02:54;29.90;49.40
8008;DHT22;4049;49.468;11.200;2022-07-29T11:05:23;29.70;49.60
8008;DHT22;4049;49.468;11.200;2022-07-29T11:08:26;29.60;49.90
8008;DHT22;4049;49.468;11.200;2022-07-29T11:14:07;29.30;50.10
8008;DHT22;4049;49.468;11.200;2022-07-29T11:17:00;29.20;50.10
8008;DHT22;4049;49.468;11.200;2022-07-29T11:19:28;29.00;50.50
8008;DHT22;4049;49.468;11.200;2022-07-29T11:21:55;28.90;50.40
8008;DHT22;4049;49.468;11.200;2022-07-29T11:24:25;28.80;50.00
8008;DHT22;4049;49.468;11.200;2022-07-29T11:27:21;28.70;50.50
8008;DHT22;4049;49.468;11.200;2022-07-29T11:29:55;28.60;51.10
8008;DHT22;4049;49.468;11.200;2022-07-29T11:32:24;28.50;50.80
8008;DHT22;4049;49.468;11.200;2022-07-29T11:35:10;28.40;51.00
8008;DHT22;4049;49.468;11.200;2022-07-29T11:37:38;28.40;50.90
8008;DHT22;4049;49.468;11.200;2022-07-29T11:40:13;28.30;51.40
8008;DHT22;4049;49.468;11.200;2022-07-29T11:42:43;28.30;52.80
8008;DHT22;4049;49.468;11.200;2022-07-29T11:45:19;28.40;51.70
8008;DHT22;4049;49.468;11.200;2022-07-29T11:47:51;28.40;51.60
8008;DHT22;4049;49.468;11.200;2022-07-29T11:50:29;28.40;51.20
8008;DHT22;4049;49.468;11.200;2022-07-29T11:52:56;28.40;52.10
8008;DHT22;4049;49.468;11.200;2022-07-29T11:55:24;28.40;52.40
8008;DHT22;4049;49.468;11.200;2022-07-29T11:57:53;28.40;52.50
8008;DHT22;4049;49.468;11.200;2022-07-29T12:00:24;28.40;53.40
8008;DHT22;4049;49.468;11.200;2022-07-29T12:02:51;28.40;53.20
8008;DHT22;4049;49.468;11.200;2022-07-29T12:05:19;28.40;53.90
8008;DHT22;4049;49.468;11.200;2022-07-29T12:07:48;28.40;53.30
8008;DHT22;4049;49.468;11.200;2022-07-29T12:10:15;28.80;53.80
8008;DHT22;4049;49.468;11.200;2022-07-29T12:12:42;29.30;52.90
8008;DHT22;4049;49.468;11.200;2022-07-29T12:15:18;29.90;52.20
8008;DHT22;4049;49.468;11.200;2022-07-29T12:17:47;30.40;50.80
8008;DHT22;4049;49.468;11.200;2022-07-29T12:20:22;30.80;50.30
8008;DHT22;4049;49.468;11.200;2022-07-29T12:22:50;31.30;48.70
8008;DHT22;4049;49.468;11.200;2022-07-29T12:25:19;31.80;47.50
8008;DHT22;4049;49.468;11.200;2022-07-29T12:27:47;32.10;47.40
8008;DHT22;4049;49.468;11.200;2022-07-29T12:30:37;32.40;46.90
8008;DHT22;4049;49.468;11.200;2022-07-29T12:33:18;32.60;46.10
8008;DHT22;4049;49.468;11.200;2022-07-29T12:35:48;32.70;46.40
8008;DHT22;4049;49.468;11.200;2022-07-29T12:38:16;32.70;45.60
8008;DHT22;4049;49.468;11.200;2022-07-29T12:40:44;32.80;45.20
8008;DHT22;4049;49.468;11.200;2022-07-29T12:43:13;32.80;44.00
8008;DHT22;4049;49.468;11.200;2022-07-29T12:45:43;32.60;44.60
8008;DHT22;4049;49.468;11.200;2022-07-29T12:48:11;32.50;44.40
8008;DHT22;4049;49.468;11.200;2022-07-29T12:50:54;32.40;46.10
8008;DHT22;4049;49.468;11.200;2022-07-29T12:53:21;32.30;46.40
8008;DHT22;4049;49.468;11.200;2022-07-29T12:55:51;32.10;46.70
8008;DHT22;4049;49.468;11.200;2022-07-29T12:58:28;32.10;45.90
8008;DHT22;4049;49.468;11.200;2022-07-29T13:01:07;32.20;45.10
8008;DHT22;4049;49.468;11.200;2022-07-29T13:03:48;32.30;46.10
8008;DHT22;4049;49.468;11.200;2022-07-29T13:06:40;32.50;46.10
8008;DHT22;4049;49.468;11.200;2022-07-29T13:09:09;32.40;45.40
8008;DHT22;4049;49.468;11.200;2022-07-29T13:11:39;32.20;43.80
8008;DHT22;4049;49.468;11.200;2022-07-29T13:14:08;32.00;44.20
8008;DHT22;4049;49.468;11.200;2022-07-29T13:16:36;31.80;44.00
8008;DHT22;4049;49.468;11.200;2022-07-29T13:19:08;31.50;43.80
8008;DHT22;4049;49.468;11.200;2022-07-29T13:21:35;31.40;44.50
8008;DHT22;4049;49.468;11.200;2022-07-29T13:24:05;31.40;44.50
8008;DHT22;4049;49.468;11.200;2022-07-29T13:26:32;31.30;44.80
8008;DHT22;4049;49.468;11.200;2022-07-29T13:28:59;31.10;45.20
8008;DHT22;4049;49.468;11.200;2022-07-29T13:31:26;31.00;45.10
8008;DHT22;4049;49.468;11.200;2022-07-29T13:33:53;30.60;45.10
8008;DHT22;4049;49.468;11.200;2022-07-29T13:36:21;30.30;45.30
8008;DHT22;4049;49.468;11.200;2022-07-29T13:38:48;29.80;46.00
8008;DHT22;4049;49.468;11.200;2022-07-29T13:41:17;29.50;46.70
8008;DHT22;4049;49.468;11.200;2022-07-29T13:43:44;29.30;47.60
8008;DHT22;4049;49.468;11.200;2022-07-29T13:46:11;29.00;48.80
8008;DHT22;4049;49.468;11.200;2022-07-29T13:48:38;28.60;49.20
8008;DHT22;4049;49.468;11.200;2022-07-29T13:51:05;28.20;50.00
8008;DHT22;4049;49.468;11.200;2022-07-29T13:53:32;27.80;50.50
8008;DHT22;4049;49.468;11.200;2022-07-29T13:55:59;27.60;50.90
8008;DHT22;4049;49.468;11.200;2022-07-29T13:58:27;27.20;51.70
8008;DHT22;4049;49.468;11.200;2022-07-29T14:00:55;27.10;52.60
8008;DHT22;4049;49.468;11.200;2022-07-29T14:03:23;26.80;53.20
8008;DHT22;4049;49.468;11.200;2022-07-29T14:05:50;26.70;53.90
8008;DHT22;4049;49.468;11.200;2022-07-29T14:08:17;26.60;54.70
8008;DHT22;4049;49.468;11.200;2022-07-29T14:10:44;26.60;55.00
8008;DHT22;4049;49.468;11.200;2022-07-29T14:13:12;26.50;55.60
8008;DHT22;4049;49.468;11.200;2022-07-29T14:15:40;26.40;56.20
8008;DHT22;4049;49.468;11.200;2022-07-29T14:18:07;26.20;57.50
8008;DHT22;4049;49.468;11.200;2022-07-29T14:20:34;26.20;58.50
8008;DHT22;4049;49.468;11.200;2022-07-29T14:23:01;26.10;58.30
8008;DHT22;4049;49.468;11.200;2022-07-29T14:25:28;26.00;59.20
8008;DHT22;4049;49.468;11.200;2022-07-29T14:27:55;25.90;59.70
8008;DHT22;4049;49.468;11.200;2022-07-29T14:30:22;25.90;60.20
8008;DHT22;4049;49.468;11.200;2022-07-29T14:32:50;25.90;60.70
8008;DHT22;4049;49.468;11.200;2022-07-29T14:35:17;25.80;61.50
8008;DHT22;4049;49.468;11.200;2022-07-29T14:37:44;25.80;62.30
8008;DHT22;4049;49.468;11.200;2022-07-29T14:40:11;25.80;62.70
8008;DHT22;4049;49.468;11.200;2022-07-29T14:42:38;25.90;63.00
8008;DHT22;4049;49.468;11.200;2022-07-29T14:45:07;25.90;64.60
8008;DHT22;4049;49.468;11.200;2022-07-29T14:47:34;25.90;64.60
8008;DHT22;4049;49.468;11.200;2022-07-29T14:50:04;25.80;63.30
8008;DHT22;4049;49.468;11.200;2022-07-29T14:52:31;25.90;63.10
8008;DHT22;4049;49.468;11.200;2022-07-29T14:54:58;25.90;62.90
8008;DHT22;4049;49.468;11.200;2022-07-29T14:57:25;25.90;62.30
8008;DHT22;4049;49.468;11.200;2022-07-29T14:59:52;25.90;60.90
8008;DHT22;4049;49.468;11.200;2022-07-29T15:02:19;26.10;62.00
8008;DHT22;4049;49.468;11.200;2022-07-29T15:04:46;25.90;62.80
8008;DHT22;4049;49.468;11.200;2022-07-29T15:07:15;25.90;63.80
8008;DHT22;4049;49.468;11.200;2022-07-29T15:09:42;26.10;63.50
8008;DHT22;4049;49.468;11.200;2022-07-29T15:12:10;26.20;64.50
8008;DHT22;4049;49.468;11.200;2022-07-29T15:14:37;26.10;65.80
8008;DHT22;4049;49.468;11.200;2022-07-29T15:17:04;26.10;65.80
8008;DHT22;4049;49.468;11.200;2022-07-29T15:19:31;26.10;66.50
8008;DHT22;4049;49.468;11.200;2022-07-29T15:21:58;26.10;66.80
8008;DHT22;4049;49.468;11.200;2022-07-29T15:24:27;26.10;67.20
8008;DHT22;4049;49.468;11.200;2022-07-29T15:26:54;26.10;67.60
8008;DHT22;4049;49.468;11.200;2022-07-29T15:29:21;25.90;70.00
8008;DHT22;4049;49.468;11.200;2022-07-29T15:31:48;25.80;70.30
8008;DHT22;4049;49.468;11.200;2022-07-29T15:34:15;25.70;71.70
8008;DHT22;4049;49.468;11.200;2022-07-29T15:36:42;25.60;72.30
8008;DHT22;4049;49.468;11.200;2022-07-29T15:39:10;25.50;73.90
8008;DHT22;4049;49.468;11.200;2022-07-29T15:41:38;25.40;74.10
8008;DHT22;4049;49.468;11.200;2022-07-29T15:44:05;25.30;76.40
8008;DHT22;4049;49.468;11.200;2022-07-29T15:46:32;25.30;77.90
8008;DHT22;4049;49.468;11.200;2022-07-29T15:49:17;25.10;81.10
8008;DHT22;4049;49.468;11.200;2022-07-29T15:51:44;25.00;91.10
8008;DHT22;4049;49.468;11.200;2022-07-29T15:54:10;24.90;97.30
8008;DHT22;4049;49.468;11.200;2022-07-29T15:56:39;24.60;99.90
8008;DHT22;4049;49.468;11.200;2022-07-29T15:59:06;24.40;99.90
8008;DHT22;4049;49.468;11.200;2022-07-29T16:01:33;24.30;99.90
8008;DHT22;4049;49.468;11.200;2022-07-29T16:04:00;24.10;99.90